Rakitna Rakitna

Učna pot


Verjetnost toče več informacij Hail probability


Kamera VP Rakitna več informacij Weather station camera


Cestna kamera več informacij Road camera


ARSO, spremljajte nas več informacij


Obiščite še:

Template documentacija
in prenos

in še drugo stran



Izjemno visoke temperature Od: 30-07-2021 00:00 Do: 23:59 Opozorilo za: Izjemno visoke temperature Stopnja: Rumena info button

METAR v bližini

   
LJLJ - Ljubljana
Posodobljeno: 30-07-2021 09:30
nekaj oblakov  
nekaj oblakov  
   Veter: različen 1.9 km/h
Veter: različen 1.9 km/h
Temperatura: 23°C
Točka rosišča: 17°C
Vlažnost: 69%
Zračni tlak: 1014 hPa
Oblaki: nekaj oblakov
Vidljivost: več kot 10 km
Podrobnosti o oblakih: nekaj oblakov 6000 ft
LJLJ 300730Z VRB01KT 9999 FEW060 23/17 Q1014 NOSIG
LJCE - Cerklje ob Krki
Posodobljeno: 30-07-2021 09:30
jasno  
jasno  
   Veter: Zahod 7.4 km/h
Veter: Zahod 7.4 km/h
Temperatura: 26°C
Točka rosišča: 19°C
Vlažnost: 65%
Zračni tlak: 1013 hPa
Oblaki: jasno
Vidljivost: več kot 10 km
Podrobnosti o oblakih: jasno
LJCE 300730Z AUTO 26004KT 9999 NCD 26/19 Q1013
LJMB - Maribor
Posodobljeno: 30-07-2021 09:00
jasno  
jasno  
   Veter: različen 3.7 km/h
Veter: različen 3.7 km/h
Temperatura: 24°C
Točka rosišča: 18°C
Vlažnost: 69%
Zračni tlak: 1013 hPa
Vidljivost: več kot 10 km
Podrobnosti o oblakih: jasno
LJMB 300700Z VRB02KT CAVOK 24/18 Q1013
LJPZ - Portorož
Posodobljeno: 30-07-2021 09:30
jasno  
jasno  
   Veter: Zahod 1.9 km/h
Veter: Zahod 1.9 km/h
Temperatura: 28°C
toplotni index: 29°C
Točka rosišča: 20°C
Vlažnost: 62%
Zračni tlak: 1012 hPa
Vidljivost: več kot 10 km
Podrobnosti o oblakih: jasno
LJPZ 300730Z 28001KT CAVOK 28/20 Q1012
LDRI - Rijeka, Airport, Croatia
Posodobljeno: 30-07-2021 09:30
jasno  
jasno  
   Veter: ZJZ 5.6 km/h
Veter: ZJZ 5.6 km/h
Temperatura: 28°C
toplotni index: 29°C
Točka rosišča: 19°C
Vlažnost: 58%
Zračni tlak: 1012 hPa
Vidljivost: več kot 10 km
Podrobnosti o oblakih: jasno
LDRI 300730Z 24003KT CAVOK 28/19 Q1012
LOWK - Klagenfurt, Airport, Avstia
Posodobljeno: 30-07-2021 09:20
nekaj oblakov  
nekaj oblakov  
   Veter: različen 3.7 km/h
Veter: različen 3.7 km/h
Temperatura: 23°C
Točka rosišča: 15°C
Vlažnost: 61%
Zračni tlak: 1015 hPa
Oblaki: nekaj oblakov
Vidljivost: več kot 10 km
Podrobnosti o oblakih: nekaj oblakov 6000 ft
LOWK 300720Z VRB02KT 9999 FEW060 23/15 Q1015 NOSIG

Script developed by  Saratoga-weather.org Adapted for the template by  Weerstation Leuven

Vremenski podatki so objavljeni na:

Slovenska vremenska mreža

WeatherlinkIP

MapView

Geostik

Oprema, ki se uporablja:

Vremenska postaja
Davis VP2+ ventilirana

Vremenski program
WeatherLink

Vremenski server
Shuttle XS35V4

Ponudnik
Vremensko društvo ZEVS

Davis VP2+ ventilirana

WeatherLink

Shuttle XS35V4

Vremensko društvo ZEVS

Meteorološki podatki vremenske postaje Rakitna so neuradni, meteorološka postaja sama pa ni del državne mreže Agencije Republike Slovenije za okolje (ARSO),
je pa vključena v Vremensko društvo ZEVS. Prikazani podatki so izmerjeni točno, vendar so zgolj informativni in nimajo značaja uradnega podatka.

Podatke meri vremenska postaja "Davis VP2+ ventilirana" od 05.03.2011 dalje.

Opozarjamo, da ne prevzamemo odgovornosti za morebitno nastalo škodo, ki bi nastala zaradi odločitve, sprejete na osnovi teh podatkov!